Search for airport 
image banner adimage banner adimage banner ad
image banner ad

L94 - Mountain Valley

Located in Tehachapi, United States

ICAO - L94, IATA -

Data provided by Airmate  

General information

Coordinates: N35°6'4" W118°25'23"
Elevation is 4220 feet MSL.
Magnetic variation is 14° East
View others Airports in California

Operational data

Special qualification required
Current time UTC:
Current local time:
Weather at : KTSP - Tehachapi Muni ( 4 km )
METAR: KTSP 221455Z AUTO 00000KT 10SM CLR 20/01 A3006 RMK AO2
View NOTAMs / SUP AIP / TFR affecting this airport [VIEW]
Communications frequencies: [VIEW]

Runways:

RWY identifierQFULength (ft)Width (ft)SurfaceLDA (ft)
09L489036OTHER
27R489036OTHER
09R489036OTHER
27L489036OTHER

Airport contact information

Address: Tehachapi United States

Other aviation service providers

Flight schools

Skylark North

Skylark North
mva7@earthlink.net+1(661)822-5267

Satellite view of L94